Time;durP1;ratioP1;P1;durP2;ratioP2;P2;SDS_P1;SDS_P2;PMS_P1;PMS_P2;Temp;Humidity;BMP_temperature;BMP_pressure;BME280_temperature;BME280_humidity;BME280_pressure;Samples;Min_cycle;Max_cycle;Signal;HPM_P1;HPM_P2
2022/06/06 00:00:00;;;;;;;4.13;3.80;;;18.90;81.70;;;;;;4953232;28;20526;-43
2022/06/06 00:02:29;;;;;;;3.90;3.50;;;18.90;81.60;;;;;;4966312;28;20987;-43
2022/06/06 00:04:57;;;;;;;4.80;3.63;;;18.90;82.00;;;;;;4951674;28;20463;-43
2022/06/06 00:07:25;;;;;;;3.97;3.60;;;18.80;82.60;;;;;;4953687;28;20833;-43
2022/06/06 00:09:52;;;;;;;4.37;3.97;;;18.80;82.80;;;;;;4968194;28;20489;-42
2022/06/06 00:12:20;;;;;;;4.13;3.60;;;18.70;82.70;;;;;;4947173;28;20464;-43
2022/06/06 00:14:47;;;;;;;4.53;4.13;;;18.70;82.70;;;;;;4951593;28;21095;-42
2022/06/06 00:17:14;;;;;;;4.53;4.13;;;18.80;82.30;;;;;;4964369;28;20470;-43
2022/06/06 00:19:41;;;;;;;4.17;3.77;;;18.70;82.60;;;;;;4966690;28;20458;-42
2022/06/06 00:22:08;;;;;;;6.60;4.13;;;18.70;82.40;;;;;;4963888;28;20490;-42
2022/06/06 00:24:35;;;;;;;5.63;3.73;;;18.70;82.50;;;;;;4969468;28;21026;-42
2022/06/06 00:27:04;;;;;;;4.07;3.67;;;18.70;82.80;;;;;;4968785;28;20466;-43
2022/06/06 00:29:35;;;;;;;4.43;4.03;;;18.60;83.20;;;;;;4959216;28;20490;-43
2022/06/06 00:34:54;;;;;;;5.47;4.33;;;18.60;83.40;;;;;;4968131;28;21101;-43
2022/06/06 00:37:27;;;;;;;5.00;4.50;;;18.60;83.30;;;;;;4949989;28;20570;-42
2022/06/06 00:39:55;;;;;;;4.83;4.43;;;18.60;83.00;;;;;;4962538;28;20466;-43
2022/06/06 00:42:29;;;;;;;5.07;4.10;;;18.60;82.70;;;;;;4969003;28;21023;-43
2022/06/06 00:45:14;;;;;;;5.33;4.83;;;18.60;83.00;;;;;;4966976;28;20469;-43
2022/06/06 00:47:42;;;;;;;6.40;4.37;;;18.60;83.00;;;;;;4969118;28;20468;-42
2022/06/06 00:50:17;;;;;;;5.87;4.60;;;18.60;82.90;;;;;;4965551;28;20496;-43
2022/06/06 00:52:47;;;;;;;9.80;5.13;;;18.50;83.10;;;;;;4961938;28;20461;-43
2022/06/06 00:55:21;;;;;;;5.40;4.80;;;18.50;83.10;;;;;;4964865;28;20464;-43
2022/06/06 00:57:55;;;;;;;5.93;5.33;;;18.50;83.20;;;;;;4964485;28;20569;-43
2022/06/06 01:00:22;;;;;;;5.70;4.90;;;18.50;83.20;;;;;;4963284;28;20505;-43
2022/06/06 01:02:53;;;;;;;6.07;5.10;;;18.50;83.00;;;;;;4964104;28;20466;-43
2022/06/06 01:05:21;;;;;;;8.63;6.00;;;18.50;82.80;;;;;;4963717;28;21030;-43
2022/06/06 01:07:48;;;;;;;5.27;4.77;;;18.50;82.90;;;;;;4965861;28;20462;-43
2022/06/06 01:10:17;;;;;;;5.60;5.00;;;18.40;83.20;;;;;;4964183;28;20708;-42
2022/06/06 01:12:48;;;;;;;5.70;5.20;;;18.40;83.40;;;;;;4932302;28;20553;-42
2022/06/06 01:15:17;;;;;;;8.03;5.00;;;18.40;83.40;;;;;;4957518;28;20469;-43
2022/06/06 01:17:44;;;;;;;6.50;5.17;;;18.40;83.30;;;;;;4965803;28;20470;-43
2022/06/06 01:20:30;;;;;;;6.23;5.73;;;18.30;83.60;;;;;;4967974;28;20473;-43
2022/06/06 01:23:19;;;;;;;5.90;5.40;;;18.30;83.50;;;;;;4935428;28;20469;-43
2022/06/06 01:26:04;;;;;;;6.83;6.20;;;18.30;83.80;;;;;;4950423;28;20470;-43
2022/06/06 01:28:49;;;;;;;6.67;5.63;;;18.20;84.10;;;;;;4963704;28;20462;-43
2022/06/06 01:31:22;;;;;;;6.77;5.87;;;18.20;84.20;;;;;;4962594;28;20585;-43
2022/06/06 01:33:53;;;;;;;11.33;6.80;;;18.20;84.20;;;;;;4967793;28;20466;-42
2022/06/06 01:36:21;;;;;;;8.47;6.10;;;18.20;84.20;;;;;;4949331;28;20454;-42
2022/06/06 01:38:49;;;;;;;7.30;6.60;;;18.20;83.80;;;;;;4961897;28;20467;-43
2022/06/06 01:41:25;;;;;;;9.07;6.77;;;18.20;83.80;;;;;;4966957;28;20501;-43
2022/06/06 01:44:00;;;;;;;7.07;6.37;;;18.20;84.00;;;;;;4947079;28;21113;-42
2022/06/06 01:46:33;;;;;;;6.97;6.20;;;18.20;84.30;;;;;;4945869;28;20468;-42
2022/06/06 01:49:01;;;;;;;9.20;6.20;;;18.20;84.40;;;;;;4964755;28;20833;-43
2022/06/06 01:51:30;;;;;;;8.53;6.73;;;18.20;84.20;;;;;;4964165;28;20497;-43
2022/06/06 01:53:57;;;;;;;10.00;6.43;;;18.20;84.00;;;;;;4953328;28;20465;-43
2022/06/06 01:56:31;;;;;;;7.17;6.10;;;18.10;84.10;;;;;;4960979;28;21074;-43
2022/06/06 01:58:59;;;;;;;6.97;6.37;;;18.10;84.10;;;;;;4945350;28;21297;-43
2022/06/06 02:01:26;;;;;;;6.67;6.07;;;18.10;84.20;;;;;;4965607;28;20478;-43
2022/06/06 02:03:53;;;;;;;8.07;6.07;;;18.10;84.20;;;;;;4967472;28;20561;-43
2022/06/06 02:06:20;;;;;;;9.20;6.80;;;18.10;84.20;;;;;;4951573;28;20545;-43
2022/06/06 02:08:47;;;;;;;7.20;6.47;;;18.10;84.30;;;;;;4949424;28;20469;-43
2022/06/06 02:11:14;;;;;;;10.43;7.30;;;18.10;84.30;;;;;;4966827;28;20492;-43
2022/06/06 02:13:41;;;;;;;7.37;6.60;;;18.10;84.40;;;;;;4940901;28;20469;-43
2022/06/06 02:16:09;;;;;;;9.80;7.07;;;18.10;84.40;;;;;;4966471;28;21071;-43
2022/06/06 02:18:36;;;;;;;9.57;6.80;;;18.10;84.20;;;;;;4963112;28;20480;-43
2022/06/06 02:21:04;;;;;;;7.80;6.97;;;18.10;84.20;;;;;;4966798;28;20488;-43
2022/06/06 02:23:31;;;;;;;7.77;6.10;;;18.10;84.20;;;;;;4967604;28;20476;-43
2022/06/06 02:25:58;;;;;;;7.90;7.10;;;18.10;84.00;;;;;;4960279;28;20476;-43
2022/06/06 02:28:25;;;;;;;7.53;6.83;;;18.10;84.00;;;;;;4966179;28;20469;-43
2022/06/06 02:30:52;;;;;;;8.80;7.10;;;18.10;84.00;;;;;;4963797;28;20482;-43
2022/06/06 02:33:19;;;;;;;8.03;6.80;;;18.10;84.20;;;;;;4949717;28;20466;-42
2022/06/06 02:35:46;;;;;;;8.07;7.00;;;18.10;84.30;;;;;;4968444;28;20471;-43
2022/06/06 02:38:14;;;;;;;8.10;7.07;;;18.10;84.30;;;;;;4965249;28;20497;-43
2022/06/06 02:40:41;;;;;;;8.13;7.10;;;18.10;84.30;;;;;;4968884;28;20466;-43
2022/06/06 02:43:08;;;;;;;6.73;6.03;;;18.10;84.30;;;;;;4970196;28;20548;-43
2022/06/06 02:45:35;;;;;;;7.23;6.53;;;18.00;84.50;;;;;;4972954;28;20464;-43
2022/06/06 02:48:09;;;;;;;7.13;6.43;;;18.10;84.00;;;;;;4954599;28;20552;-43
2022/06/06 02:50:36;;;;;;;6.83;6.13;;;18.10;83.90;;;;;;4971616;28;20493;-43
2022/06/06 02:53:05;;;;;;;9.27;7.57;;;18.10;84.20;;;;;;4975696;28;20450;-43
2022/06/06 02:55:32;;;;;;;7.70;6.17;;;18.00;84.20;;;;;;4952986;28;20955;-43
2022/06/06 02:58:00;;;;;;;8.43;7.37;;;18.00;83.70;;;;;;4970759;28;20473;-44
2022/06/06 03:00:31;;;;;;;9.20;7.97;;;18.00;84.20;;;;;;4953673;28;21104;-44
2022/06/06 03:02:59;;;;;;;7.60;6.60;;;17.90;84.70;;;;;;4956670;28;20913;-44
2022/06/06 03:05:46;;;;;;;8.17;7.00;;;17.90;85.00;;;;;;4973174;28;20467;-44
2022/06/06 03:08:37;;;;;;;8.70;7.03;;;17.90;84.80;;;;;;4970474;28;20494;-44
2022/06/06 03:11:14;;;;;;;8.70;6.97;;;17.90;85.10;;;;;;4972221;28;20493;-44
2022/06/06 03:14:02;;;;;;;8.77;7.87;;;17.90;85.00;;;;;;4975492;28;20492;-44
2022/06/06 03:23:33;;;;;;;7.80;7.00;;;17.80;84.80;;;;;;4970975;28;20559;-44
2022/06/06 03:26:11;;;;;;;9.50;7.40;;;17.80;85.00;;;;;;4974155;28;20894;-45
2022/06/06 03:28:44;;;;;;;7.77;6.93;;;17.80;85.00;;;;;;4974524;28;20483;-45
2022/06/06 03:31:48;;;;;;;10.47;7.50;;;17.80;85.00;;;;;;4972036;28;20499;-45
2022/06/06 03:34:21;;;;;;;8.30;7.03;;;17.80;85.00;;;;;;4971896;28;20461;-45
2022/06/06 03:37:22;;;;;;;9.77;8.47;;;17.80;85.00;;;;;;4953833;28;20461;-45
2022/06/06 03:40:17;;;;;;;10.20;7.47;;;17.80;85.00;;;;;;4946953;28;20520;-45
2022/06/06 03:43:18;;;;;;;9.97;7.67;;;17.80;84.90;;;;;;4954767;28;20473;-45
2022/06/06 03:45:51;;;;;;;10.20;7.80;;;17.80;84.90;;;;;;4971032;28;20472;-45
2022/06/06 03:48:37;;;;;;;9.27;8.20;;;17.80;84.90;;;;;;4972504;28;21001;-45
2022/06/06 03:51:30;;;;;;;13.40;8.50;;;17.90;84.90;;;;;;4950180;28;20486;-45
2022/06/06 03:54:31;;;;;;;8.77;7.90;;;17.90;84.80;;;;;;4959540;28;21028;-45
2022/06/06 03:57:19;;;;;;;9.53;7.97;;;17.90;84.70;;;;;;4965736;28;20461;-45
2022/06/06 03:59:55;;;;;;;11.03;7.00;;;17.90;84.60;;;;;;4962654;28;20518;-45
2022/06/06 04:02:32;;;;;;;9.93;8.53;;;17.90;84.50;;;;;;4959817;28;20469;-45
2022/06/06 04:05:08;;;;;;;13.80;8.77;;;17.90;84.40;;;;;;4932252;28;20986;-45
2022/06/06 04:07:35;;;;;;;11.30;7.63;;;17.90;84.60;;;;;;4968261;28;20943;-45
2022/06/06 04:10:04;;;;;;;9.07;7.67;;;17.90;84.50;;;;;;4948513;28;20462;-45
2022/06/06 04:12:49;;;;;;;11.50;8.40;;;17.90;84.70;;;;;;4969815;28;20494;-45
2022/06/06 04:15:38;;;;;;;10.90;9.10;;;17.90;85.00;;;;;;4964936;28;20486;-45
2022/06/06 04:18:10;;;;;;;9.67;8.00;;;17.90;84.90;;;;;;4958690;28;20844;-45
2022/06/06 04:21:05;;;;;;;10.00;8.50;;;17.90;84.90;;;;;;4966752;28;21057;-45
2022/06/06 04:24:09;;;;;;;11.70;8.40;;;17.90;85.00;;;;;;4954375;28;20513;-45
2022/06/06 04:26:47;;;;;;;9.87;8.23;;;17.90;85.50;;;;;;4965184;28;20470;-45
2022/06/06 04:29:14;;;;;;;11.47;9.00;;;17.80;85.80;;;;;;4965479;28;20841;-45
2022/06/06 04:32:14;;;;;;;12.53;8.83;;;17.90;85.40;;;;;;4968798;28;20498;-45
2022/06/06 04:34:50;;;;;;;9.37;7.73;;;18.00;85.30;;;;;;4966899;28;20468;-45
2022/06/06 04:37:33;;;;;;;9.63;8.57;;;18.10;85.20;;;;;;4969471;28;20458;-45
2022/06/06 04:40:21;;;;;;;13.87;8.73;;;18.10;85.00;;;;;;4964625;28;20927;-45
2022/06/06 04:42:49;;;;;;;9.10;8.20;;;18.10;85.20;;;;;;4950757;28;20462;-45
2022/06/06 04:45:16;;;;;;;7.90;7.10;;;18.10;85.10;;;;;;4968748;28;20470;-45
2022/06/06 04:47:43;;;;;;;10.83;9.13;;;18.10;85.20;;;;;;4949947;28;20939;-45
2022/06/06 04:50:16;;;;;;;10.33;8.30;;;18.20;85.20;;;;;;4971804;28;20489;-45
2022/06/06 04:52:54;;;;;;;10.00;8.97;;;18.20;85.30;;;;;;4942042;28;20629;-45
2022/06/06 04:55:24;;;;;;;11.83;8.10;;;18.20;85.00;;;;;;4962378;28;20462;-45
2022/06/06 04:57:55;;;;;;;10.10;8.03;;;18.30;85.00;;;;;;4930885;28;20492;-45
2022/06/06 05:00:24;;;;;;;11.40;7.90;;;18.30;84.50;;;;;;4965897;28;21092;-45
2022/06/06 05:02:51;;;;;;;11.40;9.00;;;18.30;84.60;;;;;;4963575;28;20484;-45
2022/06/06 05:05:18;;;;;;;8.77;7.70;;;18.30;84.90;;;;;;4962598;28;20489;-45
2022/06/06 05:07:47;;;;;;;11.07;8.87;;;18.30;84.90;;;;;;4960572;28;20477;-45
2022/06/06 05:10:57;;;;;;;10.07;7.20;;;18.40;84.90;;;;;;4960457;28;20488;-45
2022/06/06 05:13:51;;;;;;;8.77;7.80;;;18.40;84.90;;;;;;4926123;28;20465;-45
2022/06/06 05:16:35;;;;;;;10.30;8.50;;;18.50;84.30;;;;;;4968443;28;20470;-45
2022/06/06 05:19:35;;;;;;;9.40;8.33;;;18.50;84.30;;;;;;4968233;28;20508;-45
2022/06/06 05:22:28;;;;;;;12.83;8.77;;;18.50;84.20;;;;;;4964238;28;20995;-45
2022/06/06 05:25:21;;;;;;;9.33;8.27;;;18.50;84.20;;;;;;4967870;28;20469;-45
2022/06/06 05:28:29;;;;;;;10.40;8.67;;;18.50;84.00;;;;;;4965370;28;20466;-45
2022/06/06 05:31:03;;;;;;;10.57;8.27;;;18.60;83.60;;;;;;4933644;28;20956;-45
2022/06/06 05:33:35;;;;;;;9.63;8.67;;;18.60;83.00;;;;;;4958254;28;22711;-45
2022/06/06 05:36:31;;;;;;;11.93;8.97;;;18.60;82.70;;;;;;4967046;28;20456;-45
2022/06/06 05:39:12;;;;;;;11.60;9.33;;;18.70;82.70;;;;;;4914034;28;20461;-45
2022/06/06 05:41:54;;;;;;;10.73;8.47;;;18.70;82.70;;;;;;4965758;28;20549;-45
2022/06/06 05:44:53;;;;;;;11.50;10.20;;;18.70;82.50;;;;;;4949866;28;20473;-45
2022/06/06 05:47:57;;;;;;;11.50;8.80;;;18.70;82.50;;;;;;4965843;28;20883;-45
2022/06/06 05:50:57;;;;;;;17.07;9.63;;;18.70;82.80;;;;;;4950274;28;20996;-45
2022/06/06 05:53:36;;;;;;;10.10;8.67;;;18.70;83.00;;;;;;4960708;28;20466;-45
2022/06/06 05:56:22;;;;;;;14.03;8.80;;;18.70;82.90;;;;;;4958113;28;20994;-45
2022/06/06 05:59:16;;;;;;;9.67;8.67;;;18.80;82.60;;;;;;4968154;28;20462;-45
2022/06/06 06:01:52;;;;;;;10.57;9.00;;;18.80;82.50;;;;;;4965793;28;20478;-45
2022/06/06 06:04:46;;;;;;;11.77;9.87;;;18.90;82.20;;;;;;4964844;28;20457;-45
2022/06/06 06:07:21;;;;;;;8.97;7.07;;;18.90;81.50;;;;;;4962072;28;20476;-45
2022/06/06 06:09:55;;;;;;;10.07;9.10;;;18.90;81.50;;;;;;4948195;28;20457;-45
2022/06/06 06:13:14;;;;;;;9.93;8.70;;;18.90;82.10;;;;;;4964901;28;20985;-45
2022/06/06 06:15:43;;;;;;;10.40;9.30;;;19.00;81.90;;;;;;4909419;28;20466;-45
2022/06/06 06:18:20;;;;;;;11.37;10.17;;;19.10;82.10;;;;;;4963984;28;20470;-45
2022/06/06 06:20:54;;;;;;;10.90;8.10;;;19.20;81.60;;;;;;4942119;28;20460;-45
2022/06/06 06:23:25;;;;;;;11.00;9.10;;;19.20;81.20;;;;;;4967195;28;20837;-45
2022/06/06 06:25:53;;;;;;;10.13;7.67;;;19.20;80.70;;;;;;4925701;28;20454;-45
2022/06/06 06:28:20;;;;;;;9.87;8.27;;;19.30;80.10;;;;;;4962662;28;20553;-45
2022/06/06 06:31:25;;;;;;;8.60;7.30;;;19.30;79.30;;;;;;4962149;28;20450;-45
2022/06/06 06:34:11;;;;;;;9.97;7.70;;;19.30;79.60;;;;;;4914948;28;20457;-45
2022/06/06 06:36:45;;;;;;;10.47;9.03;;;19.30;79.40;;;;;;4961958;28;21049;-45
2022/06/06 06:39:36;;;;;;;9.90;8.20;;;19.30;79.60;;;;;;4945346;28;20511;-45
2022/06/06 06:42:33;;;;;;;11.27;8.83;;;19.30;80.00;;;;;;4963605;28;22292;-45
2022/06/06 06:45:22;;;;;;;10.73;8.40;;;19.30;80.30;;;;;;4924901;28;20455;-45
2022/06/06 06:47:58;;;;;;;9.23;8.07;;;19.40;80.30;;;;;;4948269;28;20513;-45
2022/06/06 06:50:39;;;;;;;8.30;7.50;;;19.40;80.00;;;;;;4944258;28;20494;-45
2022/06/06 06:53:34;;;;;;;8.60;7.40;;;19.40;79.90;;;;;;4944942;28;20504;-45
2022/06/06 06:56:18;;;;;;;8.90;7.90;;;19.40;80.00;;;;;;4944620;28;20849;-45
2022/06/06 06:58:59;;;;;;;10.87;7.73;;;19.50;79.30;;;;;;4965848;28;20462;-45
2022/06/06 07:11:19;;;;;;;10.93;8.23;;;19.70;79.40;;;;;;4964138;28;20469;-45
2022/06/06 07:14:04;;;;;;;8.17;7.30;;;19.80;79.20;;;;;;4962636;28;20485;-45
2022/06/06 07:16:38;;;;;;;7.37;6.23;;;19.90;77.60;;;;;;4961396;28;20472;-45
2022/06/06 07:19:19;;;;;;;9.00;8.10;;;20.00;77.00;;;;;;4965916;28;20846;-45
2022/06/06 07:21:47;;;;;;;8.27;7.43;;;20.00;77.50;;;;;;4959098;28;20835;-45
2022/06/06 07:24:20;;;;;;;9.63;6.50;;;20.10;75.80;;;;;;4948036;28;20468;-45
2022/06/06 07:26:48;;;;;;;8.23;6.33;;;20.10;75.60;;;;;;4964118;28;20464;-45
2022/06/06 07:29:20;;;;;;;6.90;5.93;;;20.00;75.10;;;;;;4970424;28;20469;-45
2022/06/06 07:32:08;;;;;;;6.63;5.93;;;20.00;75.60;;;;;;4965979;28;20493;-45
2022/06/06 07:34:59;;;;;;;7.40;6.17;;;19.90;76.00;;;;;;4970370;28;20544;-46
2022/06/06 07:37:47;;;;;;;7.37;6.57;;;19.90;75.80;;;;;;4964475;28;20473;-45
2022/06/06 07:40:43;;;;;;;7.57;6.80;;;19.90;76.40;;;;;;4966387;28;20456;-45
2022/06/06 07:43:34;;;;;;;8.70;6.40;;;19.80;77.00;;;;;;4937346;28;20480;-46
2022/06/06 07:46:38;;;;;;;6.67;5.97;;;19.70;77.10;;;;;;4968385;28;20468;-45
2022/06/06 07:49:09;;;;;;;7.80;6.20;;;19.70;76.80;;;;;;4969014;28;20521;-46
2022/06/06 07:51:43;;;;;;;7.03;5.67;;;19.60;77.30;;;;;;4944915;28;20518;-45
2022/06/06 07:54:28;;;;;;;6.13;5.27;;;19.50;77.80;;;;;;4952401;28;20821;-45
2022/06/06 07:57:24;;;;;;;6.27;5.40;;;19.50;78.10;;;;;;4968898;28;21288;-46
2022/06/06 08:00:13;;;;;;;6.17;5.57;;;19.50;78.30;;;;;;4957534;28;20504;-45
2022/06/06 08:03:06;;;;;;;6.00;5.40;;;19.40;79.50;;;;;;4964295;28;20472;-46
2022/06/06 08:06:04;;;;;;;13.10;6.73;;;19.40;80.10;;;;;;4970686;28;20446;-45
2022/06/06 08:08:40;;;;;;;6.27;5.63;;;19.30;80.60;;;;;;4963529;28;20475;-45
2022/06/06 08:11:10;;;;;;;10.33;5.60;;;19.40;79.50;;;;;;4968232;28;20477;-45
2022/06/06 08:13:59;;;;;;;6.87;5.73;;;19.40;80.00;;;;;;4968114;28;20497;-45
2022/06/06 08:16:46;;;;;;;5.90;5.30;;;19.40;79.90;;;;;;4968980;28;20501;-45
2022/06/06 08:19:33;;;;;;;6.17;5.20;;;19.30;80.70;;;;;;4968326;28;20463;-43
2022/06/06 08:22:01;;;;;;;6.60;5.23;;;19.30;81.10;;;;;;4969655;28;20529;-43
2022/06/06 08:24:42;;;;;;;5.20;4.70;;;19.30;80.10;;;;;;4948994;28;20464;-43
2022/06/06 08:27:19;;;;;;;7.40;4.43;;;19.30;80.50;;;;;;4959475;28;20470;-43
2022/06/06 08:29:48;;;;;;;5.90;4.13;;;19.40;79.90;;;;;;4964142;28;20466;-44
2022/06/06 08:32:15;;;;;;;9.37;4.60;;;19.40;80.20;;;;;;4945674;28;21254;-43
2022/06/06 08:34:43;;;;;;;6.00;4.40;;;19.40;79.90;;;;;;4963719;28;20716;-44
2022/06/06 08:37:37;;;;;;;6.03;4.43;;;19.50;80.10;;;;;;4946688;28;20474;-44
2022/06/06 08:40:28;;;;;;;4.83;4.33;;;19.50;79.80;;;;;;4968989;28;20466;-45
2022/06/06 08:43:22;;;;;;;4.73;4.20;;;19.50;79.10;;;;;;4968749;28;20478;-44
2022/06/06 08:46:20;;;;;;;4.43;3.50;;;19.40;79.10;;;;;;4964378;28;20459;-44
2022/06/06 08:48:59;;;;;;;3.77;3.47;;;19.40;78.40;;;;;;4964941;28;20471;-44
2022/06/06 08:51:34;;;;;;;4.70;3.63;;;19.40;78.70;;;;;;4965309;28;20472;-44
2022/06/06 08:54:20;;;;;;;6.80;3.70;;;19.30;78.70;;;;;;4963468;28;20469;-44
2022/06/06 08:57:06;;;;;;;4.07;3.50;;;19.30;78.60;;;;;;4964874;28;20638;-44
2022/06/06 08:59:35;;;;;;;5.30;3.70;;;19.20;78.90;;;;;;4945989;28;20486;-44
2022/06/06 09:02:20;;;;;;;4.27;3.83;;;19.20;79.50;;;;;;4962233;28;20986;-44
2022/06/06 09:05:11;;;;;;;6.40;3.77;;;19.30;80.00;;;;;;4966668;28;20460;-44
2022/06/06 09:08:17;;;;;;;4.00;3.60;;;19.30;80.30;;;;;;4965438;28;20458;-44
2022/06/06 09:11:13;;;;;;;4.43;3.40;;;19.40;79.90;;;;;;4949862;28;20560;-44
2022/06/06 09:13:58;;;;;;;4.17;3.77;;;19.50;78.60;;;;;;4942127;28;20498;-44
2022/06/06 09:17:02;;;;;;;5.40;3.47;;;19.60;78.00;;;;;;4968378;28;20839;-44
2022/06/06 09:20:09;;;;;;;4.40;4.00;;;19.70;77.90;;;;;;4951396;28;20466;-44
2022/06/06 09:23:14;;;;;;;5.40;4.10;;;19.70;77.80;;;;;;4965556;28;20477;-44
2022/06/06 09:25:59;;;;;;;4.93;3.70;;;19.80;76.70;;;;;;4965134;28;20468;-44
2022/06/06 09:28:28;;;;;;;3.73;3.43;;;19.80;76.70;;;;;;4962878;28;20898;-43
2022/06/06 09:31:07;;;;;;;3.97;3.53;;;19.90;76.10;;;;;;4962756;28;20802;-44
2022/06/06 09:34:03;;;;;;;3.10;2.77;;;20.00;76.60;;;;;;4969264;28;20489;-44
2022/06/06 09:37:00;;;;;;;4.83;3.70;;;20.30;75.50;;;;;;4968183;28;20991;-44
2022/06/06 09:39:33;;;;;;;3.17;2.87;;;20.60;73.80;;;;;;4965170;28;21292;-44
2022/06/06 09:42:06;;;;;;;3.77;3.37;;;21.10;73.80;;;;;;4969004;28;20470;-44
2022/06/06 09:45:00;;;;;;;3.93;3.53;;;21.60;71.60;;;;;;4967407;28;20461;-44
2022/06/06 09:47:57;;;;;;;3.47;3.10;;;22.10;69.30;;;;;;4969903;28;20461;-44
2022/06/06 09:50:27;;;;;;;3.10;2.63;;;22.60;68.40;;;;;;4967804;28;20461;-45
2022/06/06 09:53:27;;;;;;;3.00;2.70;;;23.10;66.50;;;;;;4964950;28;20501;-44
2022/06/06 09:59:03;;;;;;;2.67;2.47;;;24.10;62.70;;;;;;4965001;28;20462;-44
2022/06/06 10:02:10;;;;;;;2.10;1.90;;;24.60;59.40;;;;;;4964755;28;20581;-45
2022/06/06 10:05:10;;;;;;;3.73;2.67;;;25.00;55.90;;;;;;4915049;28;20483;-44
2022/06/06 10:08:16;;;;;;;2.27;2.10;;;25.20;55.90;;;;;;4947407;28;21224;-45
2022/06/06 10:11:14;;;;;;;2.90;2.13;;;25.20;54.60;;;;;;4958867;28;20492;-44
2022/06/06 10:14:08;;;;;;;4.27;2.30;;;25.20;55.50;;;;;;4959480;28;20497;-45
2022/06/06 10:16:43;;;;;;;3.13;2.83;;;25.20;54.90;;;;;;4963981;28;20457;-44
2022/06/06 10:19:47;;;;;;;3.47;2.60;;;25.30;55.90;;;;;;4943791;28;20458;-44
2022/06/06 10:22:13;;;;;;;3.23;2.30;;;25.40;54.00;;;;;;4965980;28;20461;-44
2022/06/06 10:24:40;;;;;;;4.37;2.43;;;25.20;55.20;;;;;;4962167;28;20473;-44
2022/06/06 10:27:45;;;;;;;3.20;2.80;;;25.00;57.00;;;;;;4964562;28;20461;-44
2022/06/06 10:30:41;;;;;;;3.17;2.30;;;24.90;56.30;;;;;;4946679;28;21027;-45
2022/06/06 10:33:30;;;;;;;4.87;3.40;;;24.90;56.70;;;;;;4947980;28;21174;-45
2022/06/06 10:36:24;;;;;;;2.73;2.40;;;24.90;56.70;;;;;;4965844;28;20466;-45
2022/06/06 10:39:06;;;;;;;2.97;2.47;;;24.80;56.70;;;;;;4964172;28;20552;-45
2022/06/06 10:42:01;;;;;;;3.63;2.60;;;24.60;57.10;;;;;;4944157;28;20473;-44
2022/06/06 10:45:15;;;;;;;2.40;2.20;;;24.50;58.10;;;;;;4967545;28;20993;-45
2022/06/06 10:47:45;;;;;;;2.50;2.30;;;24.40;58.50;;;;;;4965800;28;20457;-45
2022/06/06 10:50:18;;;;;;;4.60;4.03;;;24.30;59.20;;;;;;4961132;28;20465;-45
2022/06/06 10:53:06;;;;;;;2.80;2.30;;;24.20;58.20;;;;;;4960631;28;20497;-45
2022/06/06 10:55:52;;;;;;;4.27;2.83;;;24.10;58.50;;;;;;4947581;28;20854;-45
2022/06/06 10:58:57;;;;;;;7.87;2.40;;;23.90;58.80;;;;;;4964334;28;21009;-45
2022/06/06 11:01:48;;;;;;;1.77;1.67;;;23.80;59.20;;;;;;4930018;28;20499;-45
2022/06/06 11:04:21;;;;;;;2.73;2.10;;;23.70;57.50;;;;;;4947515;28;20912;-44
2022/06/06 11:06:57;;;;;;;2.00;1.80;;;23.60;57.20;;;;;;4970178;28;20471;-44
2022/06/06 11:09:41;;;;;;;2.27;2.07;;;23.60;58.20;;;;;;4949210;28;20831;-45
2022/06/06 11:12:13;;;;;;;3.13;1.80;;;23.60;57.30;;;;;;4970460;28;20472;-45
2022/06/06 11:14:44;;;;;;;2.20;1.90;;;23.60;57.70;;;;;;4971102;28;20466;-45
2022/06/06 11:17:32;;;;;;;1.77;1.67;;;23.50;57.50;;;;;;4970507;28;20537;-44
2022/06/06 11:20:30;;;;;;;2.23;1.70;;;23.40;57.20;;;;;;4969801;28;20453;-45
2022/06/06 11:23:28;;;;;;;2.00;1.90;;;23.40;56.30;;;;;;4965596;28;21046;-45
2022/06/06 11:26:15;;;;;;;2.83;2.10;;;23.40;56.20;;;;;;4952534;28;21002;-45
2022/06/06 11:29:18;;;;;;;2.00;1.80;;;23.40;58.00;;;;;;4946301;28;20465;-44
2022/06/06 11:32:14;;;;;;;3.30;1.97;;;23.50;56.80;;;;;;4944435;28;20588;-45
2022/06/06 11:35:04;;;;;;;2.40;1.60;;;23.40;56.80;;;;;;4967347;28;20464;-44
2022/06/06 11:37:49;;;;;;;2.30;2.10;;;23.40;56.70;;;;;;4948487;28;20971;-44
2022/06/06 11:40:54;;;;;;;1.90;1.73;;;23.40;56.90;;;;;;4966922;28;20462;-44
2022/06/06 11:43:26;;;;;;;2.00;1.67;;;23.40;56.10;;;;;;4966695;28;20471;-44
2022/06/06 11:46:34;;;;;;;2.90;1.97;;;23.40;56.80;;;;;;4966856;28;20544;-45
2022/06/06 11:49:27;;;;;;;2.03;1.67;;;23.40;56.40;;;;;;4967876;28;20552;-44
2022/06/06 11:52:23;;;;;;;2.37;1.97;;;23.40;55.90;;;;;;4968066;28;20507;-44
2022/06/06 11:55:12;;;;;;;2.00;1.80;;;23.40;57.20;;;;;;4917363;28;20970;-44
2022/06/06 11:58:16;;;;;;;2.20;1.60;;;23.40;56.90;;;;;;4946096;28;20470;-44
2022/06/06 12:01:08;;;;;;;2.40;1.90;;;23.40;57.00;;;;;;4963448;28;20499;-44
2022/06/06 12:04:03;;;;;;;1.77;1.67;;;23.40;57.70;;;;;;4958369;28;20464;-44
2022/06/06 12:06:36;;;;;;;2.60;1.83;;;23.30;57.10;;;;;;4969500;28;20512;-44
2022/06/06 12:09:18;;;;;;;1.50;1.40;;;23.30;56.00;;;;;;4969833;28;20465;-44
2022/06/06 12:11:48;;;;;;;2.47;2.00;;;23.30;54.70;;;;;;4956285;28;20844;-44
2022/06/06 12:14:18;;;;;;;1.50;1.40;;;23.30;53.50;;;;;;4962444;28;20504;-44
2022/06/06 12:17:18;;;;;;;4.10;1.97;;;23.30;53.20;;;;;;4949155;28;20475;-44
2022/06/06 12:20:14;;;;;;;1.53;1.43;;;23.30;53.60;;;;;;4969226;28;20457;-44
2022/06/06 12:22:40;;;;;;;3.83;1.50;;;23.30;54.60;;;;;;4934219;28;20931;-44
2022/06/06 12:25:28;;;;;;;2.63;1.70;;;23.30;53.20;;;;;;4968914;28;20552;-44
2022/06/06 12:28:20;;;;;;;2.27;2.07;;;23.30;53.40;;;;;;4969982;28;20550;-44
2022/06/06 12:31:05;;;;;;;2.27;2.03;;;23.30;54.80;;;;;;4965506;28;20833;-44
2022/06/06 12:33:35;;;;;;;2.17;1.73;;;23.40;55.50;;;;;;4966697;28;20833;-44
2022/06/06 12:36:14;;;;;;;2.77;1.70;;;23.40;55.00;;;;;;4965022;28;20763;-44
2022/06/06 12:39:00;;;;;;;2.30;1.57;;;23.40;54.30;;;;;;4948400;28;20522;-44
2022/06/06 12:41:37;;;;;;;2.20;1.50;;;23.50;52.60;;;;;;4965979;28;20465;-44
2022/06/06 12:44:35;;;;;;;1.53;1.43;;;23.60;52.00;;;;;;4948970;28;20576;-44
2022/06/06 12:47:17;;;;;;;2.00;1.47;;;23.60;51.70;;;;;;4969961;28;20462;-44
2022/06/06 12:50:00;;;;;;;1.40;1.30;;;23.70;51.50;;;;;;4969099;28;20477;-44
2022/06/06 12:52:57;;;;;;;2.90;1.30;;;23.70;51.30;;;;;;4965884;28;20509;-45
2022/06/06 12:58:44;;;;;;;2.10;1.90;;;23.80;51.30;;;;;;4967989;28;20464;-44
2022/06/06 13:01:37;;;;;;;2.30;1.40;;;23.80;51.70;;;;;;4962399;28;21290;-44
2022/06/06 13:04:10;;;;;;;2.60;1.93;;;23.80;52.00;;;;;;4960738;28;20471;-44
2022/06/06 13:06:37;;;;;;;4.03;3.73;;;23.80;51.50;;;;;;4959842;28;20476;-44
2022/06/06 13:09:41;;;;;;;2.70;1.33;;;23.80;51.70;;;;;;4939728;28;20958;-44
2022/06/06 13:12:34;;;;;;;3.63;1.83;;;23.80;51.10;;;;;;4937953;28;20699;-44
2022/06/06 13:15:39;;;;;;;1.97;1.77;;;23.80;50.20;;;;;;4955683;28;20597;-44
2022/06/06 13:18:37;;;;;;;4.17;1.90;;;23.70;52.80;;;;;;4963464;28;20499;-44
2022/06/06 13:21:33;;;;;;;2.60;1.53;;;23.80;53.10;;;;;;4963966;28;20556;-44
2022/06/06 13:24:28;;;;;;;1.87;1.50;;;23.90;53.40;;;;;;4946887;28;20495;-44
2022/06/06 13:27:18;;;;;;;3.73;1.40;;;24.00;52.10;;;;;;4965733;28;20906;-44
2022/06/06 13:29:46;;;;;;;2.20;1.73;;;24.00;50.80;;;;;;4961342;28;20905;-45
2022/06/06 13:32:24;;;;;;;1.70;1.60;;;24.10;50.20;;;;;;4959693;28;20468;-44
2022/06/06 13:35:11;;;;;;;1.70;1.60;;;24.10;50.40;;;;;;4965300;28;20493;-45
2022/06/06 13:37:42;;;;;;;3.40;1.53;;;24.20;50.70;;;;;;4964696;28;20461;-46
2022/06/06 13:40:15;;;;;;;2.57;1.73;;;24.20;49.00;;;;;;4962760;28;20842;-46
2022/06/06 13:43:15;;;;;;;2.47;1.77;;;24.20;49.70;;;;;;4966877;28;20461;-46
2022/06/06 13:46:04;;;;;;;2.80;1.40;;;24.20;50.50;;;;;;4970831;28;20862;-46
2022/06/06 13:48:46;;;;;;;1.43;1.33;;;24.20;50.70;;;;;;4969266;28;20821;-46
2022/06/06 13:51:24;;;;;;;2.10;1.53;;;24.30;49.50;;;;;;4960495;28;20461;-46
2022/06/06 13:54:01;;;;;;;2.50;1.70;;;24.30;48.90;;;;;;4964143;28;20487;-45
2022/06/06 13:56:31;;;;;;;2.60;1.00;;;24.30;49.00;;;;;;4965812;28;20596;-45
2022/06/06 13:59:20;;;;;;;5.07;1.10;;;24.40;47.80;;;;;;4967018;28;20975;-46
2022/06/06 14:02:01;;;;;;;3.13;1.40;;;24.40;47.10;;;;;;4962451;28;20465;-46
2022/06/06 14:05:05;;;;;;;1.73;1.30;;;24.40;47.80;;;;;;4967091;28;20845;-46
2022/06/06 14:07:35;;;;;;;1.27;0.90;;;24.40;48.00;;;;;;4947575;28;20890;-46
2022/06/06 14:10:09;;;;;;;1.67;1.20;;;24.50;48.40;;;;;;4967772;28;20492;-46
2022/06/06 14:13:14;;;;;;;1.10;1.00;;;24.50;46.60;;;;;;4967283;28;20501;-46
2022/06/06 14:15:44;;;;;;;1.87;1.77;;;24.60;48.80;;;;;;4945732;28;20468;-46
2022/06/06 14:18:17;;;;;;;3.10;1.63;;;24.60;51.20;;;;;;4950074;28;20461;-46
2022/06/06 14:20:52;;;;;;;7.53;2.00;;;24.40;53.40;;;;;;4967023;28;20576;-46
2022/06/06 14:23:24;;;;;;;5.50;2.00;;;24.30;55.10;;;;;;4950547;28;20555;-46